Time;durP1;ratioP1;P1;durP2;ratioP2;P2;SDS_P1;SDS_P2;PMS_P1;PMS_P2;Temp;Humidity;BMP_temperature;BMP_pressure;BME280_temperature;BME280_humidity;BME280_pressure;Samples;Min_cycle;Max_cycle;Signal;HPM_P1;HPM_P2
2023/07/11 00:02:09;;;;;;;4.60;1.52;;;18.90;99.90;;;;;;6306362;22;20099;-83
2023/07/11 00:04:36;;;;;;;3.88;1.27;;;18.90;99.90;;;;;;6334892;22;20042;-84
2023/07/11 00:07:02;;;;;;;4.20;1.45;;;18.90;99.90;;;;;;6307168;22;20090;-83
2023/07/11 00:09:28;;;;;;;3.28;1.20;;;18.90;99.90;;;;;;6281067;22;20011;-83
2023/07/11 00:11:54;;;;;;;3.30;1.10;;;18.90;99.90;;;;;;6281841;22;20442;-83
2023/07/11 00:14:20;;;;;;;3.33;1.10;;;18.90;99.90;;;;;;6307146;22;20015;-83
2023/07/11 00:16:46;;;;;;;3.72;1.20;;;18.80;99.90;;;;;;6307338;22;20007;-84
2023/07/11 00:19:12;;;;;;;5.28;1.15;;;18.80;99.90;;;;;;6307253;22;20011;-83
2023/07/11 00:21:38;;;;;;;2.90;1.10;;;18.70;99.90;;;;;;6307132;22;20007;-83
2023/07/11 00:24:05;;;;;;;3.10;1.00;;;18.80;99.90;;;;;;6305882;22;20392;-84
2023/07/11 00:26:33;;;;;;;4.97;1.40;;;18.80;99.90;;;;;;6307309;22;20007;-83
2023/07/11 00:29:12;;;;;;;4.60;1.10;;;18.70;99.90;;;;;;6307152;22;20014;-83
2023/07/11 00:31:38;;;;;;;4.18;1.10;;;18.70;99.90;;;;;;6307272;22;20007;-84
2023/07/11 00:34:03;;;;;;;5.68;1.40;;;18.70;99.90;;;;;;6306115;22;20101;-81
2023/07/11 00:36:29;;;;;;;4.05;1.30;;;18.60;99.90;;;;;;6333380;22;20380;-83
2023/07/11 00:38:55;;;;;;;4.97;1.40;;;18.60;99.90;;;;;;6305174;22;20421;-83
2023/07/11 00:41:21;;;;;;;3.30;1.10;;;18.60;99.90;;;;;;6281121;22;20070;-83
2023/07/11 00:44:01;;;;;;;4.60;1.20;;;18.60;99.90;;;;;;6332813;22;20400;-82
2023/07/11 00:46:28;;;;;;;4.25;1.13;;;18.50;99.90;;;;;;6306751;22;20050;-82
2023/07/11 00:48:57;;;;;;;4.32;1.20;;;18.50;99.90;;;;;;6305351;22;20101;-83
2023/07/11 00:51:30;;;;;;;4.50;1.33;;;18.50;99.90;;;;;;6274965;22;20058;-82
2023/07/11 00:53:56;;;;;;;4.47;1.17;;;18.50;99.90;;;;;;6275773;22;20016;-82
2023/07/11 00:56:27;;;;;;;4.53;1.45;;;18.50;99.90;;;;;;6275395;22;20019;-82
2023/07/11 00:58:55;;;;;;;2.90;1.05;;;18.60;99.90;;;;;;6274718;22;20434;-83
2023/07/11 01:01:21;;;;;;;6.25;1.50;;;18.60;99.90;;;;;;6275081;22;20038;-83
2023/07/11 01:03:48;;;;;;;3.83;1.13;;;18.60;99.90;;;;;;6275677;22;20016;-83
2023/07/11 01:06:18;;;;;;;5.43;1.40;;;18.60;99.90;;;;;;6302070;22;20015;-83
2023/07/11 01:08:45;;;;;;;3.92;1.17;;;18.50;99.90;;;;;;6275806;22;20454;-83
2023/07/11 01:11:11;;;;;;;3.63;1.30;;;18.50;99.90;;;;;;6275205;22;20015;-83
2023/07/11 01:13:42;;;;;;;5.80;1.33;;;18.50;99.90;;;;;;6303174;22;20053;-83
2023/07/11 01:16:09;;;;;;;5.05;1.48;;;18.50;99.90;;;;;;6302684;22;20047;-83
2023/07/11 01:18:35;;;;;;;4.13;1.80;;;18.50;99.90;;;;;;6276051;22;20015;-83
2023/07/11 01:21:04;;;;;;;4.53;1.80;;;18.50;99.90;;;;;;6302408;22;20015;-83
2023/07/11 01:23:30;;;;;;;6.50;1.67;;;18.50;99.90;;;;;;6275318;22;20054;-83
2023/07/11 01:26:05;;;;;;;4.32;1.40;;;18.40;99.90;;;;;;6275564;22;20012;-83
2023/07/11 01:28:34;;;;;;;4.32;1.63;;;18.40;99.90;;;;;;6249469;22;20049;-83
2023/07/11 01:31:00;;;;;;;5.38;2.30;;;18.40;99.90;;;;;;6302705;22;20415;-83
2023/07/11 01:33:26;;;;;;;4.85;2.53;;;18.40;99.90;;;;;;6274948;22;20022;-83
2023/07/11 01:35:53;;;;;;;4.57;2.17;;;18.40;99.90;;;;;;6301842;22;20026;-84
2023/07/11 01:38:22;;;;;;;6.40;2.28;;;18.40;99.90;;;;;;6274912;22;20022;-83
2023/07/11 01:40:49;;;;;;;5.15;1.67;;;18.40;99.90;;;;;;6249346;22;20033;-83
2023/07/11 01:43:19;;;;;;;8.40;2.30;;;18.40;99.90;;;;;;6274826;22;20019;-83
2023/07/11 01:45:44;;;;;;;6.30;2.30;;;18.30;99.90;;;;;;6275987;22;20339;-83
2023/07/11 01:48:11;;;;;;;6.47;1.77;;;18.30;99.90;;;;;;6275744;22;20071;-83
2023/07/11 01:50:37;;;;;;;6.20;2.00;;;18.30;99.90;;;;;;6302305;22;20453;-84
2023/07/11 01:53:03;;;;;;;5.65;2.10;;;18.30;99.90;;;;;;6305446;22;20052;-83
2023/07/11 01:55:29;;;;;;;4.15;1.60;;;18.30;99.90;;;;;;6307147;22;20022;-84
2023/07/11 01:57:54;;;;;;;5.47;2.92;;;18.30;99.90;;;;;;6307286;22;20019;-84
2023/07/11 02:00:20;;;;;;;8.38;2.63;;;18.30;99.90;;;;;;6334858;22;20037;-84
2023/07/11 02:02:46;;;;;;;8.55;2.63;;;18.30;99.90;;;;;;6306659;22;20010;-84
2023/07/11 02:05:14;;;;;;;8.15;3.17;;;18.30;99.90;;;;;;6280357;22;20437;-84
2023/07/11 02:07:41;;;;;;;5.95;2.65;;;18.30;99.90;;;;;;6333679;22;20006;-84
2023/07/11 02:10:08;;;;;;;6.88;2.50;;;18.20;99.90;;;;;;6306272;22;20033;-84
2023/07/11 02:12:34;;;;;;;8.93;2.65;;;18.30;99.90;;;;;;6281017;22;20590;-84
2023/07/11 02:14:59;;;;;;;7.30;2.80;;;18.30;99.90;;;;;;6334782;22;20011;-83
2023/07/11 02:17:25;;;;;;;4.70;2.20;;;18.30;99.90;;;;;;6281776;22;20089;-84
2023/07/11 02:20:11;;;;;;;7.53;2.85;;;18.30;99.90;;;;;;6306124;22;20441;-84
2023/07/11 02:22:37;;;;;;;7.65;2.50;;;18.20;99.90;;;;;;6335021;22;20116;-84
2023/07/11 02:25:03;;;;;;;7.32;2.47;;;18.20;99.90;;;;;;6334956;22;20007;-84
2023/07/11 02:27:46;;;;;;;11.30;3.58;;;18.20;99.90;;;;;;6335702;22;20303;-84
2023/07/11 02:30:12;;;;;;;7.22;2.47;;;18.20;99.90;;;;;;6334801;22;20505;-83
2023/07/11 02:32:39;;;;;;;8.30;2.67;;;18.20;99.90;;;;;;6307565;22;20103;-83
2023/07/11 02:35:05;;;;;;;7.28;3.55;;;18.10;99.90;;;;;;6333487;22;20556;-83
2023/07/11 02:37:31;;;;;;;5.72;2.33;;;18.10;99.90;;;;;;6306016;22;20014;-83
2023/07/11 02:39:57;;;;;;;6.38;2.00;;;18.10;99.90;;;;;;6305575;22;20014;-84
2023/07/11 02:42:22;;;;;;;6.32;2.53;;;18.10;99.90;;;;;;6306779;22;20383;-84
2023/07/11 02:44:48;;;;;;;4.95;2.55;;;18.10;99.90;;;;;;6307508;22;20011;-84
2023/07/11 02:47:14;;;;;;;4.70;2.30;;;18.10;99.90;;;;;;6334492;22;20023;-84
2023/07/11 02:49:41;;;;;;;6.50;2.30;;;18.10;99.90;;;;;;6334282;22;20011;-84
2023/07/11 02:52:07;;;;;;;8.05;2.10;;;18.10;99.90;;;;;;6306173;22;20015;-84
2023/07/11 02:54:36;;;;;;;9.65;2.55;;;18.10;99.90;;;;;;6306992;22;20015;-84
2023/07/11 02:57:06;;;;;;;8.65;2.65;;;18.10;99.90;;;;;;6238801;22;20016;-84
2023/07/11 02:59:32;;;;;;;6.07;2.83;;;18.10;99.90;;;;;;6239032;23;20012;-84
2023/07/11 03:01:58;;;;;;;7.10;2.45;;;18.10;99.90;;;;;;6186639;23;20023;-84
2023/07/11 03:04:27;;;;;;;9.40;2.75;;;18.00;99.90;;;;;;6213976;23;20023;-84
2023/07/11 03:06:56;;;;;;;5.80;2.10;;;18.00;99.90;;;;;;6238522;23;20210;-84
2023/07/11 03:09:23;;;;;;;9.27;3.08;;;18.00;99.90;;;;;;6212759;23;20050;-83
2023/07/11 03:11:48;;;;;;;5.25;2.58;;;18.00;99.90;;;;;;6188393;23;20079;-84
2023/07/11 03:14:14;;;;;;;10.75;3.08;;;18.00;99.90;;;;;;6239096;23;20352;-84
2023/07/11 03:16:42;;;;;;;7.80;2.60;;;18.00;99.90;;;;;;6240097;23;20014;-84
2023/07/11 03:19:08;;;;;;;4.93;1.88;;;18.00;99.90;;;;;;6216060;23;20008;-84
2023/07/11 03:21:34;;;;;;;6.88;2.55;;;18.00;99.90;;;;;;6215207;23;20537;-84
2023/07/11 03:24:00;;;;;;;7.05;2.53;;;18.00;99.90;;;;;;6189952;23;20020;-84
2023/07/11 03:26:25;;;;;;;7.25;2.22;;;17.90;99.90;;;;;;6241037;23;20344;-84
2023/07/11 03:28:51;;;;;;;6.75;2.42;;;17.90;99.90;;;;;;6241371;23;20015;-84
2023/07/11 03:31:17;;;;;;;6.10;2.55;;;17.90;99.90;;;;;;6240899;22;20447;-84
2023/07/11 03:33:45;;;;;;;6.20;2.45;;;17.80;99.90;;;;;;6233299;22;20318;-84
2023/07/11 03:36:11;;;;;;;5.63;2.20;;;17.80;99.90;;;;;;6308716;22;20021;-84
2023/07/11 03:38:37;;;;;;;7.70;2.00;;;17.80;99.90;;;;;;6309495;22;20007;-84
2023/07/11 03:41:03;;;;;;;5.55;2.03;;;17.80;99.90;;;;;;6308655;22;20034;-84
2023/07/11 03:43:28;;;;;;;7.28;2.55;;;17.80;99.90;;;;;;6308620;22;20049;-84
2023/07/11 03:45:54;;;;;;;5.82;1.73;;;17.80;99.90;;;;;;6282518;22;20019;-84
2023/07/11 03:48:20;;;;;;;5.40;1.88;;;17.80;99.90;;;;;;6308860;22;20342;-84
2023/07/11 03:50:45;;;;;;;6.53;2.00;;;17.80;99.90;;;;;;6337092;22;20318;-85
2023/07/11 03:53:11;;;;;;;8.05;2.05;;;17.80;99.90;;;;;;6282550;22;20101;-85
2023/07/11 03:55:37;;;;;;;3.67;1.77;;;17.80;99.90;;;;;;6309245;22;20011;-84
2023/07/11 03:58:03;;;;;;;6.88;2.20;;;17.80;99.90;;;;;;6308236;22;20042;-85
2023/07/11 04:00:28;;;;;;;10.95;2.58;;;17.80;99.90;;;;;;6308320;22;20018;-85
2023/07/11 04:02:54;;;;;;;5.93;2.20;;;17.80;99.90;;;;;;6335860;22;20019;-85
2023/07/11 04:05:20;;;;;;;7.50;2.30;;;17.80;99.90;;;;;;6283077;22;20015;-85
2023/07/11 04:07:45;;;;;;;8.27;2.10;;;17.80;99.90;;;;;;6336039;22;20007;-85
2023/07/11 04:10:12;;;;;;;8.98;2.80;;;17.70;99.90;;;;;;6308500;22;20081;-85
2023/07/11 04:12:44;;;;;;;7.50;2.72;;;17.70;99.90;;;;;;6283730;22;20049;-85
2023/07/11 04:15:13;;;;;;;9.75;3.15;;;17.70;99.90;;;;;;6308071;22;20023;-85
2023/07/11 04:17:39;;;;;;;5.57;2.03;;;17.70;99.90;;;;;;6335962;22;20430;-85
2023/07/11 04:20:05;;;;;;;7.93;2.53;;;17.60;99.90;;;;;;6336561;22;20060;-85
2023/07/11 04:22:31;;;;;;;7.05;2.67;;;17.50;99.90;;;;;;6308538;22;20130;-85
2023/07/11 04:24:57;;;;;;;8.60;3.00;;;17.60;99.90;;;;;;6308147;22;20094;-85
2023/07/11 04:27:24;;;;;;;6.15;2.38;;;17.50;99.90;;;;;;6308855;22;20147;-86
2023/07/11 04:29:50;;;;;;;5.95;2.45;;;17.50;99.90;;;;;;6336349;22;20018;-86
2023/07/11 04:32:18;;;;;;;7.03;2.83;;;17.50;99.90;;;;;;6309298;22;20011;-86
2023/07/11 04:34:44;;;;;;;5.40;2.78;;;17.50;99.90;;;;;;6337618;22;20014;-86
2023/07/11 04:37:09;;;;;;;5.45;2.33;;;17.50;99.90;;;;;;6336526;22;20511;-86
2023/07/11 04:39:35;;;;;;;12.93;2.50;;;17.50;99.90;;;;;;6337229;22;20021;-86
2023/07/11 04:42:01;;;;;;;5.85;2.20;;;17.60;99.90;;;;;;6307603;22;20441;-86
2023/07/11 04:44:26;;;;;;;6.85;2.53;;;17.60;99.90;;;;;;6282357;22;20068;-85
2023/07/11 04:46:52;;;;;;;6.88;2.72;;;17.60;99.90;;;;;;6309501;22;20007;-85
2023/07/11 04:49:18;;;;;;;6.00;2.05;;;17.70;99.90;;;;;;6309399;22;20017;-87
2023/07/11 04:51:44;;;;;;;6.80;3.75;;;17.70;99.90;;;;;;6310419;22;20097;-88
2023/07/11 04:54:10;;;;;;;8.35;3.42;;;17.60;99.90;;;;;;6309968;22;20026;-88
2023/07/11 04:56:39;;;;;;;9.50;3.28;;;17.70;99.90;;;;;;6283387;22;20063;-87
2023/07/11 04:59:05;;;;;;;10.45;3.60;;;17.60;99.90;;;;;;6307373;22;20464;-87
2023/07/11 05:01:31;;;;;;;7.30;2.90;;;17.60;99.90;;;;;;6307732;22;20017;-88
2023/07/11 05:03:56;;;;;;;6.85;3.03;;;17.70;99.90;;;;;;6282602;22;20011;-89
2023/07/11 05:06:22;;;;;;;7.45;2.85;;;17.60;99.90;;;;;;6337235;22;20054;-88
2023/07/11 05:08:48;;;;;;;7.13;3.53;;;17.50;99.90;;;;;;6308957;22;20007;-88
2023/07/11 05:11:19;;;;;;;8.13;3.05;;;17.50;99.90;;;;;;6282546;22;20566;-88
2023/07/11 05:13:47;;;;;;;8.90;3.30;;;17.50;99.90;;;;;;6336936;22;20034;-88
2023/07/11 05:16:16;;;;;;;11.02;3.78;;;17.50;99.90;;;;;;6308805;22;20076;-88
2023/07/11 05:18:43;;;;;;;8.40;3.75;;;17.50;99.90;;;;;;6281777;22;20132;-88
2023/07/11 05:21:11;;;;;;;8.20;3.50;;;17.50;99.90;;;;;;6306913;22;20025;-88
2023/07/11 05:23:37;;;;;;;9.52;3.88;;;17.50;99.90;;;;;;6309537;22;20071;-89
2023/07/11 05:26:04;;;;;;;7.45;3.42;;;17.60;99.90;;;;;;6308153;22;20133;-88
2023/07/11 05:28:30;;;;;;;7.00;3.80;;;17.60;99.90;;;;;;6307641;22;20011;-87
2023/07/11 05:30:56;;;;;;;7.85;3.55;;;17.60;99.90;;;;;;6336933;22;20013;-87
2023/07/11 05:33:23;;;;;;;9.02;4.10;;;17.70;99.90;;;;;;6308240;22;20010;-88
2023/07/11 05:36:05;;;;;;;11.98;4.10;;;17.80;99.90;;;;;;6310948;22;20010;-90
2023/07/11 05:38:34;;;;;;;11.23;4.43;;;17.90;99.90;;;;;;6335701;22;20015;-89
2023/07/11 05:41:00;;;;;;;10.68;4.47;;;18.00;99.90;;;;;;6283064;22;20094;-90
2023/07/11 05:43:27;;;;;;;12.43;4.43;;;18.10;99.90;;;;;;6309296;22;20007;-90
2023/07/11 05:45:53;;;;;;;11.45;4.50;;;18.10;99.90;;;;;;6310834;22;20069;-88
2023/07/11 05:48:18;;;;;;;8.27;4.30;;;18.20;99.90;;;;;;6312815;22;20431;-90
2023/07/11 05:50:44;;;;;;;9.75;3.90;;;18.30;99.90;;;;;;6338439;22;20492;-88
2023/07/11 05:53:10;;;;;;;8.73;4.18;;;18.30;99.90;;;;;;6312855;22;20440;-84
2023/07/11 05:55:36;;;;;;;8.52;4.20;;;18.40;99.90;;;;;;6312714;22;20015;-90
2023/07/11 05:58:02;;;;;;;9.07;4.97;;;18.40;99.90;;;;;;6309896;22;20038;-86
2023/07/11 06:00:27;;;;;;;7.85;4.43;;;18.50;99.90;;;;;;6335835;22;20010;-91
2023/07/11 06:02:53;;;;;;;8.65;4.45;;;18.50;99.90;;;;;;6337445;22;20018;-89
2023/07/11 06:05:27;;;;;;;8.68;4.03;;;18.60;99.90;;;;;;6335069;22;20307;-86
2023/07/11 06:07:53;;;;;;;12.40;4.67;;;18.70;99.90;;;;;;6282694;22;20032;-88
2023/07/11 06:10:19;;;;;;;9.20;3.88;;;18.70;99.90;;;;;;6336259;22;20221;-87
2023/07/11 06:12:45;;;;;;;8.18;4.10;;;18.80;99.90;;;;;;6280357;22;20447;-87
2023/07/11 06:15:10;;;;;;;9.40;3.97;;;18.80;99.90;;;;;;6308399;22;20029;-87
2023/07/11 06:17:36;;;;;;;9.27;4.07;;;18.90;99.90;;;;;;6308183;22;20053;-92
2023/07/11 06:20:03;;;;;;;12.02;4.53;;;18.90;99.90;;;;;;6307204;22;20053;-86
2023/07/11 06:22:29;;;;;;;8.85;4.03;;;19.00;99.90;;;;;;6307293;22;20039;-86
2023/07/11 06:24:55;;;;;;;7.70;3.63;;;19.00;99.90;;;;;;6334920;22;20011;-86
2023/07/11 06:27:21;;;;;;;10.65;4.07;;;19.10;99.90;;;;;;6306424;22;20422;-85
2023/07/11 06:29:47;;;;;;;10.82;4.70;;;19.20;99.90;;;;;;6306873;22;20095;-86
2023/07/11 06:32:13;;;;;;;8.70;4.00;;;19.30;99.90;;;;;;6335018;22;20110;-87
2023/07/11 06:34:39;;;;;;;8.73;4.22;;;19.40;99.90;;;;;;6280878;22;20345;-87
2023/07/11 06:37:05;;;;;;;11.77;4.47;;;19.50;99.90;;;;;;6306220;22;20480;-87
2023/07/11 06:39:30;;;;;;;10.45;4.00;;;19.50;99.90;;;;;;6306309;22;20015;-86
2023/07/11 06:41:56;;;;;;;9.32;4.05;;;19.60;99.90;;;;;;6305523;22;20015;-87
2023/07/11 06:44:22;;;;;;;7.78;3.78;;;19.80;99.90;;;;;;6307807;22;20007;-88
2023/07/11 06:46:48;;;;;;;8.95;3.38;;;19.80;99.90;;;;;;6306230;22;20100;-87
2023/07/11 06:49:13;;;;;;;8.30;3.30;;;19.90;99.90;;;;;;6279135;22;20394;-87
2023/07/11 06:51:39;;;;;;;9.55;3.55;;;20.00;99.90;;;;;;6306919;22;20018;-89
2023/07/11 06:54:05;;;;;;;8.27;3.60;;;20.10;99.90;;;;;;6306747;22;20306;-88
2023/07/11 06:56:32;;;;;;;9.48;3.28;;;20.10;99.90;;;;;;6280712;22;20017;-88
2023/07/11 06:58:58;;;;;;;10.32;3.60;;;20.10;99.90;;;;;;6305722;22;20015;-88
2023/07/11 07:01:24;;;;;;;8.40;4.03;;;20.20;99.90;;;;;;6305900;22;20115;-88
2023/07/11 07:03:50;;;;;;;8.82;3.72;;;20.30;99.90;;;;;;6305709;22;20015;-88
2023/07/11 07:06:17;;;;;;;8.85;3.40;;;20.30;99.90;;;;;;6306458;22;20332;-87
2023/07/11 07:08:43;;;;;;;9.93;3.65;;;20.40;99.90;;;;;;6305621;22;20041;-86
2023/07/11 07:11:09;;;;;;;7.72;3.60;;;20.40;99.90;;;;;;6306081;22;20022;-87
2023/07/11 07:13:35;;;;;;;8.82;3.08;;;20.50;99.90;;;;;;6303954;22;20029;-88
2023/07/11 07:16:04;;;;;;;9.80;3.80;;;20.60;99.90;;;;;;6280221;22;20018;-86
2023/07/11 07:18:34;;;;;;;8.00;3.90;;;20.70;99.90;;;;;;6306857;22;20011;-87
2023/07/11 07:21:01;;;;;;;9.30;3.03;;;20.90;99.90;;;;;;6305400;22;20068;-90
2023/07/11 07:23:28;;;;;;;9.63;3.47;;;21.00;99.90;;;;;;6281731;22;20015;-89
2023/07/11 07:25:59;;;;;;;8.07;3.50;;;21.20;99.90;;;;;;6308333;22;20007;-88
2023/07/11 07:28:27;;;;;;;9.80;3.22;;;21.40;99.90;;;;;;6332880;22;20017;-88
2023/07/11 07:30:54;;;;;;;7.45;3.20;;;21.60;99.90;;;;;;6278540;22;20018;-88
2023/07/11 07:33:23;;;;;;;10.25;3.55;;;21.80;99.90;;;;;;6332963;22;20019;-88
2023/07/11 07:35:54;;;;;;;8.98;3.13;;;22.00;99.90;;;;;;6336082;22;20196;-88
2023/07/11 07:38:20;;;;;;;6.93;3.05;;;22.20;99.90;;;;;;6308065;22;20015;-89
2023/07/11 07:40:51;;;;;;;6.60;3.13;;;22.40;99.90;;;;;;6307679;22;20059;-89
2023/07/11 07:43:17;;;;;;;8.00;3.08;;;22.50;99.90;;;;;;6306152;22;20453;-88
2023/07/11 07:45:50;;;;;;;6.50;2.78;;;22.60;99.90;;;;;;6308311;22;20011;-89
2023/07/11 07:48:15;;;;;;;8.02;2.90;;;22.70;99.90;;;;;;6306343;22;20441;-89
2023/07/11 07:50:41;;;;;;;10.85;2.75;;;22.80;99.90;;;;;;6307124;22;20011;-89
2023/07/11 07:53:11;;;;;;;7.47;2.78;;;22.80;99.90;;;;;;6305292;22;20011;-89
2023/07/11 07:55:39;;;;;;;7.57;2.72;;;22.90;99.90;;;;;;6338166;22;20026;-88
2023/07/11 07:58:05;;;;;;;6.85;2.83;;;22.90;99.90;;;;;;6308161;22;20015;-89
2023/07/11 08:00:32;;;;;;;7.72;2.78;;;23.00;99.90;;;;;;6309012;22;20006;-88
2023/07/11 08:02:58;;;;;;;9.63;2.67;;;23.00;99.90;;;;;;6309471;22;20007;-88
2023/07/11 08:05:25;;;;;;;7.78;3.65;;;23.20;99.90;;;;;;6259378;22;20010;-88
2023/07/11 08:07:51;;;;;;;12.10;3.00;;;23.40;99.90;;;;;;6308855;22;20010;-89
2023/07/11 08:10:17;;;;;;;6.30;2.55;;;23.60;99.90;;;;;;6308343;22;20056;-89
2023/07/11 08:12:43;;;;;;;5.10;2.30;;;23.70;99.90;;;;;;6309634;22;20460;-89
2023/07/11 08:15:11;;;;;;;5.72;2.45;;;23.80;99.90;;;;;;6308047;22;20015;-88
2023/07/11 08:17:38;;;;;;;6.55;2.50;;;23.80;99.90;;;;;;6309054;22;20448;-90
2023/07/11 08:20:07;;;;;;;5.95;2.60;;;23.90;99.90;;;;;;6309887;22;20373;-90
2023/07/11 08:22:33;;;;;;;6.55;2.42;;;23.90;99.90;;;;;;6308050;22;20014;-90
2023/07/11 08:24:59;;;;;;;7.13;2.60;;;23.90;99.90;;;;;;6282122;22;20060;-90
2023/07/11 08:27:25;;;;;;;6.72;2.42;;;23.90;99.90;;;;;;6283290;22;20472;-89
2023/07/11 08:29:50;;;;;;;4.80;2.70;;;24.00;99.90;;;;;;6309641;22;20380;-90
2023/07/11 08:32:18;;;;;;;7.97;2.72;;;24.10;99.90;;;;;;6308375;22;20402;-88
2023/07/11 08:34:44;;;;;;;9.18;2.78;;;24.20;99.90;;;;;;6308731;22;20073;-88
2023/07/11 08:37:10;;;;;;;8.65;2.38;;;24.30;99.90;;;;;;6336708;22;20331;-89
2023/07/11 08:39:37;;;;;;;6.07;2.17;;;24.40;99.90;;;;;;6309341;22;20090;-90
2023/07/11 08:42:18;;;;;;;7.90;2.70;;;24.60;99.90;;;;;;6307833;22;20452;-89
2023/07/11 08:44:51;;;;;;;6.88;2.30;;;24.80;99.90;;;;;;6308607;22;20022;-90
2023/07/11 08:47:31;;;;;;;6.70;2.92;;;24.90;99.90;;;;;;6281388;22;20011;-88
2023/07/11 08:50:15;;;;;;;7.35;2.88;;;25.00;99.90;;;;;;6335824;22;20010;-90
2023/07/11 08:52:43;;;;;;;7.03;2.58;;;24.90;99.90;;;;;;6309396;22;20022;-90
2023/07/11 08:55:14;;;;;;;6.18;2.17;;;24.80;99.90;;;;;;6305794;22;20019;-90
2023/07/11 08:57:48;;;;;;;9.55;2.35;;;24.90;99.90;;;;;;6308317;22;20021;-90
2023/07/11 09:00:17;;;;;;;5.55;2.30;;;24.90;99.90;;;;;;6282136;22;20066;-89
2023/07/11 09:03:03;;;;;;;5.45;1.90;;;24.90;99.90;;;;;;6335305;22;20517;-87
2023/07/11 09:06:03;;;;;;;8.32;2.70;;;25.00;99.90;;;;;;6333777;22;20046;-87
2023/07/11 09:08:30;;;;;;;7.80;2.03;;;25.10;99.90;;;;;;6179006;23;20480;-88
2023/07/11 09:11:21;;;;;;;7.40;2.67;;;25.30;99.90;;;;;;6127974;23;20036;-88
2023/07/11 09:14:01;;;;;;;5.88;2.20;;;25.50;99.90;;;;;;6179078;23;20017;-90
2023/07/11 09:16:40;;;;;;;6.40;2.05;;;25.70;99.00;;;;;;6129794;23;20013;-88
2023/07/11 09:19:48;;;;;;;7.57;2.10;;;25.70;97.70;;;;;;6127666;23;20484;-88
2023/07/11 09:22:20;;;;;;;7.38;2.00;;;25.90;97.20;;;;;;6152974;23;20111;-89
2023/07/11 09:25:25;;;;;;;5.70;1.85;;;26.00;98.10;;;;;;6153497;23;20013;-87
2023/07/11 09:28:04;;;;;;;6.68;2.40;;;26.20;98.30;;;;;;6154004;23;20009;-87
2023/07/11 09:30:40;;;;;;;4.93;1.90;;;26.40;98.10;;;;;;6178218;23;20013;-87
2023/07/11 09:33:29;;;;;;;8.80;2.20;;;26.50;98.20;;;;;;6176769;23;20036;-88
2023/07/11 09:35:56;;;;;;;5.55;2.08;;;26.50;97.40;;;;;;6153227;23;20028;-87
2023/07/11 09:38:35;;;;;;;8.38;2.05;;;26.50;97.40;;;;;;6179143;23;20017;-88
2023/07/11 09:41:05;;;;;;;6.63;1.77;;;26.50;97.40;;;;;;6129362;23;20009;-89
2023/07/11 09:43:31;;;;;;;5.85;2.00;;;26.60;97.50;;;;;;6153080;23;20016;-89
2023/07/11 09:46:01;;;;;;;6.90;1.60;;;26.60;96.30;;;;;;6330263;22;20018;-89
2023/07/11 09:48:31;;;;;;;4.85;1.80;;;26.70;96.50;;;;;;6280075;22;20018;-90
2023/07/11 09:51:00;;;;;;;10.68;1.65;;;26.70;95.90;;;;;;6280419;22;20007;-90
2023/07/11 09:53:28;;;;;;;7.30;1.60;;;26.80;95.70;;;;;;6306148;22;20015;-89
2023/07/11 09:55:56;;;;;;;8.50;1.48;;;26.80;95.60;;;;;;6332800;22;20018;-89
2023/07/11 09:58:22;;;;;;;6.47;1.73;;;26.80;95.30;;;;;;6306880;22;20371;-88
2023/07/11 10:00:51;;;;;;;5.85;1.83;;;26.80;95.40;;;;;;6336103;22;20086;-88
2023/07/11 10:03:21;;;;;;;6.55;1.42;;;26.80;95.30;;;;;;6279913;22;20015;-90
2023/07/11 10:05:50;;;;;;;7.10;1.50;;;26.80;95.10;;;;;;6309796;22;20021;-90
2023/07/11 10:08:19;;;;;;;7.40;1.60;;;26.80;95.20;;;;;;6309439;22;20038;-90
2023/07/11 10:10:50;;;;;;;8.27;1.70;;;26.90;95.40;;;;;;6336792;22;20514;-91
2023/07/11 10:13:18;;;;;;;5.07;1.40;;;27.00;95.20;;;;;;6309780;22;20078;-89
2023/07/11 10:15:48;;;;;;;5.68;1.45;;;27.10;95.00;;;;;;6308997;22;20019;-91
2023/07/11 10:18:19;;;;;;;7.80;1.70;;;27.10;95.00;;;;;;6337040;22;20018;-87
2023/07/11 10:20:48;;;;;;;6.05;1.48;;;27.20;94.50;;;;;;6335757;22;20430;-89
2023/07/11 10:23:17;;;;;;;8.20;1.60;;;27.30;94.90;;;;;;6310868;22;20052;-89
2023/07/11 10:25:44;;;;;;;7.15;1.63;;;27.40;95.20;;;;;;6313323;22;20033;-88
2023/07/11 10:28:32;;;;;;;5.82;1.65;;;27.60;95.30;;;;;;6311847;22;20019;-89
2023/07/11 10:31:04;;;;;;;6.38;1.60;;;27.70;95.30;;;;;;6285406;22;20011;-89
2023/07/11 10:33:40;;;;;;;10.90;2.17;;;27.80;95.10;;;;;;6313221;22;20013;-88
2023/07/11 10:36:21;;;;;;;6.30;1.80;;;27.80;94.80;;;;;;6310367;22;20011;-89
2023/07/11 10:38:54;;;;;;;5.05;1.58;;;27.70;94.40;;;;;;6309572;22;20015;-88
2023/07/11 10:41:29;;;;;;;6.50;1.83;;;27.60;94.90;;;;;;6283097;22;20054;-89
2023/07/11 10:44:02;;;;;;;6.97;1.83;;;27.50;95.40;;;;;;6307647;22;20019;-88
2023/07/11 10:46:41;;;;;;;6.97;1.80;;;27.70;95.50;;;;;;6306159;22;20045;-87
2023/07/11 10:49:14;;;;;;;6.95;1.73;;;27.80;95.50;;;;;;6335408;22;20086;-89
2023/07/11 10:52:13;;;;;;;5.82;1.77;;;28.00;95.00;;;;;;6309545;22;20023;-90
2023/07/11 10:54:55;;;;;;;10.73;1.73;;;28.00;94.40;;;;;;6310421;22;20059;-88
2023/07/11 10:57:52;;;;;;;7.57;1.77;;;27.90;94.60;;;;;;6339655;22;20063;-88
2023/07/11 11:00:23;;;;;;;11.55;2.00;;;28.00;94.80;;;;;;6311217;22;20015;-88
2023/07/11 11:03:03;;;;;;;5.22;1.70;;;28.10;95.00;;;;;;6324796;22;20019;-96
2023/07/11 11:06:10;;;;;;;6.47;1.50;;;28.30;94.70;;;;;;6333591;22;20002;-96
2023/07/11 11:08:51;;;;;;;8.77;1.42;;;28.50;95.10;;;;;;6336219;22;20025;-96
2023/07/11 11:11:20;;;;;;;5.22;1.20;;;28.70;94.40;;;;;;6292639;22;20014;-94
2023/07/11 11:14:05;;;;;;;5.63;1.48;;;28.80;93.50;;;;;;6289577;22;20018;-92
2023/07/11 11:16:37;;;;;;;5.65;1.73;;;28.90;93.40;;;;;;6287791;22;20015;-92
2023/07/11 11:19:41;;;;;;;5.40;1.42;;;28.90;94.10;;;;;;6313430;22;20066;-92
2023/07/11 11:22:21;;;;;;;7.90;1.30;;;28.90;94.50;;;;;;6159707;23;20020;-93
2023/07/11 11:25:00;;;;;;;5.55;1.60;;;28.70;93.80;;;;;;6134029;23;20044;-92
2023/07/11 11:27:46;;;;;;;8.80;1.60;;;28.70;93.50;;;;;;6132651;23;20071;-93
2023/07/11 11:30:40;;;;;;;7.88;1.50;;;28.70;93.90;;;;;;6131729;23;20364;-93
2023/07/11 11:33:32;;;;;;;7.90;1.65;;;28.80;93.10;;;;;;6157394;23;20025;-92
2023/07/11 11:36:25;;;;;;;4.00;1.67;;;28.90;93.30;;;;;;6158069;23;20067;-93
2023/07/11 11:38:57;;;;;;;7.47;1.27;;;28.90;93.10;;;;;;6134790;23;20017;-92
2023/07/11 11:41:56;;;;;;;5.18;1.40;;;29.00;93.20;;;;;;6159411;23;20017;-93
2023/07/11 11:44:31;;;;;;;4.82;1.58;;;29.10;93.40;;;;;;6143740;23;20017;-93
2023/07/11 11:46:58;;;;;;;5.80;1.60;;;29.10;93.20;;;;;;6159204;23;20055;-92
2023/07/11 11:49:25;;;;;;;7.18;1.90;;;29.10;92.90;;;;;;6159458;23;20017;-94
2023/07/11 11:51:53;;;;;;;6.35;1.60;;;29.10;92.60;;;;;;6158419;23;20017;-95
2023/07/11 11:54:23;;;;;;;4.63;1.55;;;29.20;92.60;;;;;;6133548;23;20587;-92
2023/07/11 11:56:58;;;;;;;5.05;1.25;;;29.20;92.00;;;;;;6307343;22;20464;-93
2023/07/11 11:59:26;;;;;;;7.38;1.50;;;29.20;92.10;;;;;;6313161;22;20783;-96
2023/07/11 12:02:04;;;;;;;4.20;1.40;;;29.20;91.80;;;;;;6313783;22;20007;-93
2023/07/11 12:04:34;;;;;;;4.72;1.40;;;29.30;92.40;;;;;;6343502;22;20037;-93
2023/07/11 12:07:12;;;;;;;6.60;1.55;;;29.40;92.10;;;;;;6287435;22;20014;-95
2023/07/11 12:09:53;;;;;;;5.05;1.52;;;29.50;91.90;;;;;;6315714;22;20655;-95
2023/07/11 12:12:18;;;;;;;6.78;1.63;;;29.50;91.70;;;;;;6287663;22;20046;-96
2023/07/11 12:14:53;;;;;;;4.80;1.58;;;29.40;91.80;;;;;;6314094;22;20091;-94
2023/07/11 12:17:34;;;;;;;6.40;1.70;;;29.40;92.20;;;;;;6291285;22;20075;-95
2023/07/11 12:19:59;;;;;;;7.80;1.88;;;29.40;92.10;;;;;;6291298;22;20018;-96
2023/07/11 12:22:26;;;;;;;5.22;1.90;;;29.40;92.10;;;;;;6289191;22;20010;-95
2023/07/11 12:25:23;;;;;;;8.35;1.73;;;29.40;92.30;;;;;;6316989;22;20042;-95
2023/07/11 12:28:00;;;;;;;9.38;1.88;;;29.40;92.00;;;;;;6295561;22;20460;-95
2023/07/11 12:30:26;;;;;;;4.82;1.92;;;29.40;91.40;;;;;;6299114;22;20117;-96
2023/07/11 12:32:54;;;;;;;5.65;1.90;;;29.50;92.10;;;;;;6294531;22;20015;-96
2023/07/11 12:35:34;;;;;;;7.75;2.28;;;29.50;92.10;;;;;;6293504;22;20014;-96
2023/07/11 12:38:05;;;;;;;5.10;1.52;;;29.50;91.90;;;;;;6287763;22;20007;-96
2023/07/11 12:40:45;;;;;;;10.45;2.00;;;29.40;91.90;;;;;;6342629;22;20015;-93
2023/07/11 12:43:30;;;;;;;6.30;1.73;;;29.40;92.00;;;;;;6284465;22;20007;-93
2023/07/11 12:45:59;;;;;;;5.57;2.00;;;29.30;92.20;;;;;;6310561;22;20342;-92
2023/07/11 12:48:34;;;;;;;7.15;1.67;;;29.20;92.30;;;;;;6309838;22;20022;-95
2023/07/11 12:51:20;;;;;;;8.98;1.95;;;29.30;92.50;;;;;;6308899;22;20449;-94
2023/07/11 12:53:46;;;;;;;5.88;1.45;;;29.30;92.20;;;;;;6308137;22;20023;-95
2023/07/11 12:56:13;;;;;;;5.30;2.08;;;29.30;92.50;;;;;;6338368;22;20061;-93
2023/07/11 12:58:40;;;;;;;6.32;1.63;;;29.30;92.80;;;;;;6284735;22;20429;-93
2023/07/11 13:01:15;;;;;;;5.13;1.88;;;29.20;92.10;;;;;;6309917;22;20015;-94